Latest Weather Observations for Dartmoor

IDV60801

Issued at 1:02 pm EST Wednesday 25 May 2016 (issued every 30 minutes, with the page automatically refreshed every 10 minutes)

About weather observations | Map of weather stations | Latest weather observations for VIC | Other Formats
Station Details ID: 090194 Name: DARTMOOR Lat: -37.92 Lon: 141.26 Height: 51.0 m
Data from the previous 72 hours. | See also: Recent months at Dartmoor
Date/Time
EST
Temp
°C
App
Temp
°C
Dew
Point
Rel
Hum
%
Delta-T
°C
Wind Press
QNH
hPa
Press
MSL
hPa
Rain
since 9 am
mm
Dir
 
Spd
km/h
Gust
km/h
Spd
kts
Gust
kts
25/01:00pm 10.6 7.3 9.5 93 0.6 N 17 22 9 12 1007.7 1007.8 1.4
25/12:30pm 10.6 7.6 9.4 92 0.6 N 15 26 8 14 1008.6 1008.6 0.6
25/12:00pm 10.7 7.3 9.1 90 0.8 N 17 24 9 13 1009.0 1009.0 0.0
25/11:30am 11.2 7.3 8.6 84 1.3 N 19 30 10 16 1009.5 1009.5 0.0
25/11:00am 11.4 7.3 7.7 78 1.8 N 19 28 10 15 1010.0 1010.0 0.0
25/10:30am 11.5 6.8 7.6 77 1.9 N 22 33 12 18 1010.2 1010.2 0.0
25/10:00am 11.9 7.4 7.0 72 2.4 N 20 30 11 16 1010.3 1010.3 0.0
25/09:30am 12.1 7.6 5.9 66 2.9 N 19 30 10 16 1010.2 1010.2 0.0
25/09:00am 12.6 7.9 5.3 61 3.4 N 19 28 10 15 1010.5 1010.5 0.0
25/08:30am 12.6 8.6 4.8 59 3.6 N 15 28 8 15 1010.6 1010.6 0.0
25/08:00am 12.6 8.3 5.1 60 3.5 N 17 28 9 15 1010.5 1010.5 0.0
25/07:30am 12.9 7.9 4.6 57 3.8 N 20 30 11 16 1010.4 1010.4 0.0
25/07:00am 12.7 8.7 4.7 58 3.7 NNE 15 22 8 12 1010.8 1010.8 0.0
25/06:30am 12.7 8.4 5.1 60 3.5 N 17 26 9 14 1011.0 1011.0 0.0
25/06:00am 12.7 8.9 5.6 62 3.3 NNE 15 24 8 13 1011.2 1011.2 0.0
25/05:30am 12.6 9.2 6.0 64 3.1 N 13 22 7 12 1011.5 1011.5 0.0
25/05:00am 12.8 9.1 6.4 65 3.1 NNE 15 22 8 12 1011.5 1011.5 0.0
25/04:30am 12.7 10.0 7.2 69 2.7 NNE 11 19 6 10 1012.1 1012.1 0.0
25/04:00am 12.6 9.6 7.7 72 2.4 NNE 13 22 7 12 1012.4 1012.4 0.0
25/03:30am 12.6 8.9 8.1 74 2.2 NNE 17 24 9 13 1012.5 1012.5 0.0
25/03:00am 12.4 9.6 8.7 78 1.8 NNE 13 20 7 11 1012.9 1012.9 0.0
25/02:30am 12.5 9.8 9.1 80 1.7 NNE 13 20 7 11 1013.4 1013.4 0.0
25/02:00am 12.4 9.8 9.4 82 1.5 NNE 13 19 7 10 1013.6 1013.6 0.0
25/01:30am 12.3 9.5 9.9 85 1.2 NNE 15 22 8 12 1013.9 1013.9 0.0
25/01:00am 11.5 9.5 10.2 92 0.7 NE 11 17 6 9 1014.7 1014.7 0.0
25/12:30am 10.3 8.2 9.7 96 0.3 NE 11 13 6 7 1015.4 1015.4 0.0
25/12:00am 10.1 8.3 9.5 96 0.3 NE 9 13 5 7 1015.8 1015.8 0.0
 
Date/Time
EST
Temp
°C
App
Temp
°C
Dew
Point
Rel
Hum
%
Delta-T
°C
Wind Press
QNH
hPa
Press
MSL
hPa
Rain
since 9 am
mm
Dir
 
Spd
km/h
Gust
km/h
Spd
kts
Gust
kts
24/11:30pm 9.4 8.3 8.6 95 0.4 ENE 4 6 2 3 1016.0 1016.0 0.0
24/11:00pm 9.9 8.4 9.1 95 0.4 NE 7 9 4 5 1016.3 1016.3 0.0
24/10:30pm 10.0 8.7 9.1 94 0.4 NE 6 7 3 4 1016.7 1016.7 0.0
24/10:00pm 10.9 9.8 10.0 94 0.5 NNE 6 7 3 4 1017.1 1017.1 0.0
24/09:30pm 11.1 9.8 10.0 93 0.6 NE 7 9 4 5 1017.1 1017.1 0.0
24/09:00pm 11.6 10.6 10.3 92 0.7 NNE 6 7 3 4 1017.5 1017.5 0.0
24/08:30pm 12.5 11.5 11.1 91 0.7 NNE 7 13 4 7 1017.6 1017.6 0.0
24/08:00pm 12.6 11.6 11.0 90 0.8 NNE 7 11 4 6 1017.8 1017.8 0.0
24/07:30pm 12.3 11.4 10.7 90 0.8 NNE 6 7 3 4 1017.9 1017.9 0.0
24/07:00pm 12.6 11.7 11.5 93 0.6 N 7 9 4 5 1018.3 1018.3 0.0
24/06:30pm 13.4 13.1 11.6 89 1.0 NNE 4 6 2 3 1018.1 1018.1 0.0
24/06:00pm 13.5 13.0 11.9 90 0.9 N 6 7 3 4 1018.2 1018.2 0.0
24/05:30pm 13.9 13.4 12.1 89 1.0 N 6 7 3 4 1018.3 1018.3 0.0
24/05:00pm 14.7 14.2 12.2 85 1.4 N 6 7 3 4 1018.5 1018.5 0.0
24/04:30pm 16.6 16.3 12.8 78 2.1 NNW 6 9 3 5 1018.5 1018.5 0.0
24/04:00pm 16.6 16.1 12.0 74 2.5 N 6 9 3 5 1018.4 1018.4 0.0
24/03:30pm 16.8 15.8 12.3 75 2.5 NNW 9 13 5 7 1018.4 1018.4 0.0
24/03:00pm 16.1 15.2 12.7 80 1.9 NNW 9 13 5 7 1018.6 1018.6 0.0
24/02:30pm 16.4 15.6 12.9 80 1.9 NNW 9 17 5 9 1018.8 1018.8 0.0
24/02:00pm 16.1 14.4 12.5 79 2.0 NW 13 22 7 12 1019.1 1019.1 0.0
24/01:30pm 15.9 14.5 12.3 79 2.0 NW 11 17 6 9 1019.3 1019.3 0.0
24/01:00pm 15.8 14.4 12.2 79 2.0 NNW 11 13 6 7 1019.5 1019.5 0.0
24/12:30pm 15.6 14.7 12.5 82 1.7 NW 9 13 5 7 1020.0 1020.0 0.0
24/12:00pm 15.5 14.5 12.3 81 1.7 NNW 9 15 5 8 1020.5 1020.5 0.0
24/11:30am 15.8 14.8 12.2 79 2.0 NNW 9 17 5 9 1021.0 1021.1 0.0
24/11:00am 14.2 12.9 11.4 83 1.5 N 9 13 5 7 1021.3 1021.4 0.0
24/10:30am 13.1 12.5 12.3 95 0.4 NNW 7 11 4 6 1021.5 1021.6 0.0
24/10:00am 11.6 11.2 11.1 97 0.3 NNW 4 6 2 3 1021.7 1021.8 0.0
24/09:30am 9.4 9.2 8.9 97 0.2 CALM 0 0 0 0 1022.0 1022.1 0.0
24/09:00am 7.8 6.8 7.4 97 0.2 ENE 2 4 1 2 1022.1 1022.2 1.2
24/08:30am 6.4 5.1 6.0 97 0.2 ENE 2 4 1 2 1022.0 1022.1 1.2
24/08:00am 5.6 3.8 5.2 97 0.2 ENE 4 6 2 3 1021.8 1021.9 1.2
24/07:30am 5.2 3.7 4.8 97 0.2 NE 2 4 1 2 1021.8 1021.9 1.2
24/07:00am 5.4 3.5 4.8 96 0.3 NE 4 6 2 3 1021.4 1021.5 1.2
24/06:30am 5.8 4.0 5.2 96 0.3 NE 4 4 2 2 1021.3 1021.4 1.2
24/06:00am 5.6 4.1 5.0 96 0.3 NE 2 4 1 2 1020.9 1021.0 1.2
24/05:30am 5.8 4.3 5.2 96 0.3 NE 2 4 1 2 1020.7 1020.7 1.2
24/05:00am 6.5 5.2 5.9 96 0.3 NE 2 4 1 2 1020.5 1020.5 1.2
24/04:30am 6.9 6.1 6.3 96 0.3 CALM 0 0 0 0 1020.4 1020.4 1.2
24/04:00am 7.3 6.5 6.6 95 0.3 CALM 0 0 0 0 1020.4 1020.4 1.2
24/03:30am 7.6 6.9 6.9 95 0.3 CALM 0 0 0 0 1020.6 1020.6 1.2
24/03:00am 8.6 7.0 7.8 95 0.4 NW 6 6 3 3 1020.7 1020.7 1.2
24/02:30am 8.6 7.0 7.8 95 0.4 NW 6 9 3 5 1020.7 1020.7 1.2
24/02:00am 8.6 6.8 7.8 95 0.4 NW 7 9 4 5 1020.6 1020.6 1.2
24/01:30am 8.5 6.6 7.6 94 0.4 NW 7 11 4 6 1020.5 1020.5 1.2
24/01:00am 8.8 7.0 8.0 95 0.4 NNW 7 11 4 6 1020.6 1020.6 1.2
24/12:30am 8.8 6.7 8.2 96 0.3 NNW 9 13 5 7 1020.6 1020.6 1.0
24/12:00am 8.2 5.9 7.4 95 0.4 NW 9 11 5 6 1020.8 1020.9 1.0
 
Date/Time
EST
Temp
°C
App
Temp
°C
Dew
Point
Rel
Hum
%
Delta-T
°C
Wind Press
QNH
hPa
Press
MSL
hPa
Rain
since 9 am
mm
Dir
 
Spd
km/h
Gust
km/h
Spd
kts
Gust
kts
23/11:30pm 8.5 6.3 7.7 95 0.4 NNW 9 11 5 6 1021.0 1021.1 1.0
23/11:00pm 8.1 5.4 7.2 94 0.4 NNW 11 13 6 7 1021.0 1021.1 1.0
23/10:30pm 8.2 5.9 7.3 94 0.4 NW 9 11 5 6 1021.1 1021.2 1.0
23/10:00pm 8.3 5.9 7.2 93 0.5 NW 9 13 5 7 1021.0 1021.1 1.0
23/09:30pm 9.0 6.4 7.6 91 0.7 NW 11 13 6 7 1020.8 1020.9 1.0
23/09:00pm 9.1 6.9 7.9 92 0.6 NW 9 13 5 7 1020.5 1020.5 1.0
23/08:30pm 9.3 7.2 8.2 93 0.5 NW 9 11 5 6 1020.6 1020.6 1.0
23/08:00pm 9.4 6.9 8.2 92 0.6 NW 11 13 6 7 1020.5 1020.5 1.0
23/07:30pm 9.4 7.4 8.5 94 0.4 NW 9 9 5 5 1020.2 1020.2 1.0
23/07:00pm 10.5 9.2 9.1 91 0.7 WNW 6 7 3 4 1020.0 1020.0 1.0
23/06:30pm 11.4 10.0 9.5 88 1.0 W 7 13 4 7 1019.8 1019.8 1.0
23/06:00pm 11.5 10.0 9.1 85 1.2 W 7 11 4 6 1019.4 1019.4 1.0
23/05:30pm 12.2 10.0 9.4 83 1.4 W 11 19 6 10 1019.1 1019.1 1.0
23/05:00pm 13.1 10.3 10.1 82 1.5 W 15 22 8 12 1018.8 1018.8 1.0
23/04:30pm 13.6 10.9 10.4 81 1.7 W 15 24 8 13 1018.5 1018.5 1.0
23/04:00pm 14.5 11.7 11.3 81 1.7 W 17 28 9 15 1018.3 1018.3 1.0
23/03:30pm 13.8 11.9 11.7 87 1.1 WNW 13 20 7 11 1018.0 1018.0 1.0
23/03:00pm 13.4 11.6 12.0 91 0.8 WNW 13 20 7 11 1017.9 1017.9 1.0
23/02:30pm 12.7 10.7 11.4 92 0.7 WNW 13 20 7 11 1018.0 1018.0 0.8
23/02:00pm 12.9 9.9 10.6 86 1.2 WNW 17 24 9 13 1018.0 1018.0 0.2
23/01:30pm 13.4 10.8 10.6 83 1.5 NW 15 20 8 11 1018.0 1018.0 0.0
23/01:00pm 13.0 10.6 10.0 82 1.5 WNW 13 20 7 11 1018.4 1018.4 0.0
23/12:30pm 13.4 10.4 9.3 76 2.1 WNW 15 20 8 11 1018.4 1018.4 0.0
23/12:00pm 13.7 9.9 9.2 74 2.3 NW 19 24 10 13 1018.5 1018.5 0.0
23/11:30am 14.6 10.8 9.0 69 2.9 NW 19 28 10 15 1018.6 1018.6 0.0
23/11:00am 13.9 11.2 9.1 73 2.4 NW 13 20 7 11 1018.8 1018.8 0.0
23/10:30am 13.1 9.6 8.8 75 2.2 NW 17 26 9 14 1018.6 1018.6 0.0
23/10:00am 12.2 10.3 9.0 81 1.6 NW 9 17 5 9 1018.4 1018.4 0.0
23/09:30am 10.7 7.7 7.8 82 1.4 NW 13 19 7 10 1018.3 1018.3 0.0
23/09:00am 9.1 6.8 7.4 89 0.8 NNW 9 13 5 7 1018.4 1018.4 13.2
23/08:30am 8.1 6.3 7.2 94 0.4 NNW 6 7 3 4 1018.0 1018.0 13.2
23/08:00am 7.8 5.4 7.1 95 0.3 NNW 9 11 5 6 1017.5 1017.5 13.0
23/07:30am 7.2 5.0 6.3 94 0.4 NNW 7 9 4 5 1017.0 1017.0 13.0
23/07:00am 7.5 5.4 6.6 94 0.4 NNW 7 9 4 5 1016.5 1016.5 13.0
23/06:30am 7.9 5.5 7.0 94 0.4 NW 9 13 5 7 1016.0 1016.0 13.0
23/06:00am 8.2 6.4 7.0 92 0.6 NNW 6 9 3 5 1015.3 1015.3 13.0
23/05:30am 8.9 6.6 7.4 90 0.7 WNW 9 13 5 7 1015.1 1015.1 13.0
23/05:00am 9.2 6.1 7.3 88 0.9 WNW 13 19 7 10 1014.4 1014.4 13.0
23/04:30am 9.5 5.3 8.3 92 0.6 WNW 20 44 11 24 1013.5 1013.5 13.0
23/04:00am 9.4 6.2 8.3 93 0.5 WNW 15 24 8 13 1013.0 1013.0 12.8
23/03:33am 9.9 4.2 8.5 91 0.7 WNW 28 48 15 26 1013.0 1013.0 10.6
23/03:30am 10.1 5.7 8.9 92 0.6 NW 22 48 12 26 1012.9 1012.9 10.4
23/03:00am 10.1 5.6 8.7 91 0.7 NW 22 43 12 23 1011.8 1011.8 10.2
23/02:30am 10.0 6.9 8.8 92 0.6 NNW 15 20 8 11 1011.1 1011.1 10.0
23/02:00am 10.0 6.9 8.8 92 0.6 NNW 15 20 8 11 1010.9 1010.9 10.0
23/01:30am 10.2 6.7 8.8 91 0.7 NW 17 28 9 15 1010.7 1010.7 10.0
23/01:00am 10.4 5.2 8.8 90 0.8 WNW 26 46 14 25 1010.9 1010.9 9.8
23/12:42am 12.3 7.3 10.9 91 0.7 NW 28 59 15 32 1010.3 1010.3 9.4
23/12:30am 12.1 8.3 11.0 93 0.6 NNW 22 28 12 15 1010.0 1010.0 9.4
23/12:00am 12.0 8.8 11.1 94 0.5 NNW 19 26 10 14 1009.6 1009.6 9.4
 
Date/Time
EST
Temp
°C
App
Temp
°C
Dew
Point
Rel
Hum
%
Delta-T
°C
Wind Press
QNH
hPa
Press
MSL
hPa
Rain
since 9 am
mm
Dir
 
Spd
km/h
Gust
km/h
Spd
kts
Gust
kts
22/11:30pm 12.1 8.9 11.2 94 0.5 N 19 26 10 14 1009.6 1009.6 9.4
22/11:00pm 12.4 9.7 11.6 95 0.4 N 17 24 9 13 1009.7 1009.7 9.4
22/10:30pm 12.6 9.9 11.8 95 0.4 N 17 28 9 15 1010.1 1010.1 9.2
22/10:00pm 12.8 11.3 11.9 94 0.5 N 11 19 6 10 1010.1 1010.1 6.8
22/09:30pm 12.8 10.9 11.7 93 0.6 NW 13 19 7 10 1009.5 1009.5 6.0
22/09:00pm 13.4 10.4 12.5 94 0.5 NNW 20 30 11 16 1009.8 1009.8 5.2
22/08:30pm 13.9 9.6 13.1 95 0.4 NNW 28 43 15 23 1009.4 1009.4 4.4
22/08:00pm 14.7 11.8 14.1 96 0.3 NNW 22 30 12 16 1009.0 1009.0 4.0
22/07:30pm 14.9 12.1 14.3 96 0.3 N 22 37 12 20 1008.7 1008.7 3.2
22/07:00pm 14.7 12.2 14.1 96 0.3 N 20 35 11 19 1008.6 1008.6 3.2
22/06:30pm 14.9 11.0 13.4 91 0.8 N 26 37 14 20 1008.5 1008.5 2.4
22/06:00pm 15.0 12.2 13.2 89 1.0 N 20 35 11 19 1008.2 1008.2 2.0
22/05:30pm 15.4 12.1 12.7 84 1.5 N 22 35 12 19 1008.4 1008.4 1.4
22/05:00pm 17.2 13.9 11.7 70 3.0 NNW 20 35 11 19 1008.0 1008.0 0.8
22/04:30pm 18.2 14.9 10.8 62 4.0 NNW 19 26 10 14 1007.3 1007.4 0.6
22/04:00pm 18.4 14.9 11.0 62 4.0 N 20 35 11 19 1007.4 1007.5 0.6
22/03:30pm 17.2 15.1 12.5 74 2.6 NNE 15 20 8 11 1007.3 1007.4 0.6
22/03:00pm 17.8 15.5 11.8 68 3.3 N 15 24 8 13 1007.6 1007.7 0.0
22/02:30pm 18.4 15.0 11.2 63 3.9 NNE 20 32 11 17 1007.1 1007.2 0.0
22/02:00pm 18.1 14.6 11.0 63 3.9 NNE 20 35 11 19 1007.3 1007.4 0.0
22/01:30pm 17.8 13.4 10.4 62 4.0 NNE 24 35 13 19 1007.4 1007.5 0.0

Other Formats:

Comma delimited format used in spreadsheet applications
http://www.bom.gov.au/fwo/IDV60801/IDV60801.95822.axf

JavaScript Object Notation format (JSON) in row-major order
http://www.bom.gov.au/fwo/IDV60801/IDV60801.95822.json